createdAt,value
2022-10-30T00:04:01.437Z,100616.31
2022-10-30T00:06:34.175Z,100612.28
2022-10-30T00:09:04.486Z,100608.22
2022-10-30T00:11:34.333Z,100612.66
2022-10-30T00:14:04.773Z,100608.63
2022-10-30T00:16:34.806Z,100615.50
2022-10-30T00:19:05.064Z,100609.03
2022-10-30T00:21:37.080Z,100613.06
2022-10-30T00:24:10.927Z,100609.44
2022-10-30T00:26:41.414Z,100610.66
2022-10-30T00:31:58.635Z,100603.75
2022-10-30T00:34:29.060Z,100603.75
2022-10-30T00:37:01.452Z,100606.19
2022-10-30T00:39:31.694Z,100602.94
2022-10-30T00:42:02.208Z,100613.44
2022-10-30T00:47:36.688Z,100604.53
2022-10-30T00:50:14.886Z,100605.75
2022-10-30T00:52:54.356Z,100600.47
2022-10-30T00:55:30.552Z,100599.28
2022-10-30T00:58:05.591Z,100604.56
2022-10-30T01:00:38.446Z,100612.22
2022-10-30T01:03:08.566Z,100603.34
2022-10-30T01:05:39.443Z,100608.63
2022-10-30T01:08:12.175Z,100609.44
2022-10-30T01:10:43.293Z,100600.94
2022-10-30T01:13:14.446Z,100604.56
2022-10-30T01:16:02.376Z,100606.19
2022-10-30T01:18:49.444Z,100607.00
2022-10-30T01:21:43.813Z,100598.13
2022-10-30T01:30:54.113Z,100598.13
2022-10-30T01:33:39.707Z,100599.75
2022-10-30T01:36:20.854Z,100605.41
2022-10-30T01:38:56.149Z,100593.25
2022-10-30T01:41:28.597Z,100590.44
2022-10-30T01:44:05.131Z,100595.28
2022-10-30T01:47:16.246Z,100591.63
2022-10-30T01:50:12.922Z,100596.06
2022-10-30T01:52:54.266Z,100598.47
2022-10-30T01:55:40.340Z,100599.69
2022-10-30T01:58:22.687Z,100595.66
2022-10-30T02:03:49.232Z,100588.38
2022-10-30T02:06:20.020Z,100594.03
2022-10-30T02:08:50.613Z,100593.22
2022-10-30T02:11:21.376Z,100598.06
2022-10-30T02:13:57.521Z,100594.03
2022-10-30T02:19:15.311Z,100598.91
2022-10-30T02:21:47.854Z,100600.53
2022-10-30T02:27:05.291Z,100602.50
2022-10-30T02:29:35.341Z,100600.88
2022-10-30T02:32:05.865Z,100604.13
2022-10-30T02:34:37.246Z,100605.34
2022-10-30T02:37:09.862Z,100608.16
2022-10-30T02:39:40.163Z,100605.34
2022-10-30T02:42:10.668Z,100605.34
2022-10-30T02:44:41.105Z,100611.78
2022-10-30T02:47:11.011Z,100610.16
2022-10-30T02:49:41.249Z,100610.16
2022-10-30T02:55:00.963Z,100605.31
2022-10-30T02:57:31.437Z,100608.94
2022-10-30T03:00:01.937Z,100609.78
2022-10-30T03:02:32.408Z,100611.78
2022-10-30T03:05:02.356Z,100607.75
2022-10-30T03:07:35.031Z,100608.56
2022-10-30T03:10:05.840Z,100607.31
2022-10-30T03:12:36.231Z,100615.38
2022-10-30T03:15:06.841Z,100610.53
2022-10-30T03:28:50.555Z,100621.41
2022-10-30T03:31:21.706Z,100616.56
2022-10-30T03:33:52.421Z,100618.97
2022-10-30T03:36:22.762Z,100631.13
2022-10-30T03:41:43.855Z,100633.13
2022-10-30T03:44:14.161Z,100632.75
2022-10-30T03:46:44.213Z,100627.50
2022-10-30T03:49:14.241Z,100641.25
2022-10-30T03:51:44.074Z,100637.22
2022-10-30T03:57:05.079Z,100633.56
2022-10-30T03:59:35.649Z,100633.56
2022-10-30T04:02:06.134Z,100630.72
2022-10-30T04:04:36.065Z,100635.19
2022-10-30T04:07:06.043Z,100630.72
2022-10-30T04:09:37.992Z,100644.44
2022-10-30T04:12:08.930Z,100642.81
2022-10-30T04:17:26.828Z,100653.28
2022-10-30T04:20:05.159Z,100648.44
2022-10-30T04:28:12.785Z,100657.69
2022-10-30T04:33:29.795Z,100666.56
2022-10-30T04:41:36.158Z,100665.78
2022-10-30T04:44:07.098Z,100667.78
2022-10-30T04:46:37.144Z,100672.69
2022-10-30T04:49:07.502Z,100676.34
2022-10-30T04:51:37.956Z,100675.97
2022-10-30T04:54:07.815Z,100680.44
2022-10-30T04:56:40.151Z,100676.84
2022-10-30T04:59:10.498Z,100676.84
2022-10-30T05:01:40.860Z,100677.28
2022-10-30T05:06:58.443Z,100680.56
2022-10-30T05:09:28.577Z,100678.19
2022-10-30T05:14:47.684Z,100688.78
2022-10-30T05:17:18.112Z,100686.38
2022-10-30T05:19:47.736Z,100688.03
2022-10-30T05:22:17.434Z,100688.47
2022-10-30T05:24:47.054Z,100698.59
2022-10-30T05:27:19.399Z,100698.25
2022-10-30T05:32:36.357Z,100703.94
2022-10-30T05:35:07.866Z,100706.41
2022-10-30T05:37:38.062Z,100706.41
2022-10-30T05:40:09.922Z,100710.94
2022-10-30T05:48:24.547Z,100711.81
2022-10-30T05:50:54.868Z,100709.41
2022-10-30T05:53:25.655Z,100711.88
2022-10-30T05:55:59.741Z,100707.03
2022-10-30T05:58:32.101Z,100714.31
2022-10-30T06:01:02.116Z,100711.03
2022-10-30T06:03:33.198Z,100710.66
2022-10-30T06:08:51.142Z,100717.13
2022-10-30T06:11:21.489Z,100714.28
2022-10-30T06:16:41.669Z,100710.53
2022-10-30T06:21:59.925Z,100717.81
2022-10-30T06:24:30.294Z,100720.63
2022-10-30T06:27:01.119Z,100709.19
2022-10-30T06:29:33.469Z,100719.28
2022-10-30T06:32:06.686Z,100710.75
2022-10-30T06:34:36.880Z,100714.34
2022-10-30T06:37:07.527Z,100714.69
2022-10-30T06:39:37.606Z,100715.81
2022-10-30T06:42:08.277Z,100714.13
2022-10-30T06:44:40.528Z,100721.00
2022-10-30T06:47:11.366Z,100720.53
2022-10-30T06:49:41.944Z,100711.91
2022-10-30T06:52:12.255Z,100712.25
2022-10-30T06:57:30.843Z,100707.25
2022-10-30T07:00:03.444Z,100714.94
2022-10-30T07:02:33.647Z,100711.66
2022-10-30T07:10:39.601Z,100706.25
2022-10-30T07:13:11.155Z,100703.38
2022-10-30T07:15:44.041Z,100706.16
2022-10-30T07:18:14.633Z,100704.91
2022-10-30T07:20:44.991Z,100699.53
2022-10-30T07:26:04.421Z,100709.19
2022-10-30T07:28:35.042Z,100707.91
2022-10-30T07:31:08.175Z,100710.25
2022-10-30T07:36:26.460Z,100709.69
2022-10-30T07:38:56.705Z,100718.97
2022-10-30T07:41:27.638Z,100719.28
2022-10-30T07:43:58.740Z,100715.09
2022-10-30T07:46:31.164Z,100699.09
2022-10-30T07:49:01.799Z,100701.41
2022-10-30T07:51:31.826Z,100704.56
2022-10-30T07:54:02.326Z,100706.06
2022-10-30T07:56:32.889Z,100705.50
2022-10-30T07:59:03.530Z,100700.06
2022-10-30T08:01:35.222Z,100706.50
2022-10-30T08:04:05.987Z,100689.69
2022-10-30T08:09:24.200Z,100692.66
2022-10-30T08:14:41.822Z,100684.31
2022-10-30T08:17:13.566Z,100684.22
2022-10-30T08:19:43.894Z,100685.03
2022-10-30T08:22:14.973Z,100681.81
2022-10-30T08:27:33.008Z,100679.38
2022-10-30T08:30:04.582Z,100683.09
2022-10-30T08:38:10.950Z,100668.16
2022-10-30T08:40:40.976Z,100669.81
2022-10-30T08:43:12.306Z,100668.22
2022-10-30T08:45:42.865Z,100665.78
2022-10-30T08:48:17.083Z,100667.03
2022-10-30T08:53:35.198Z,100668.69
2022-10-30T08:58:54.576Z,100658.50
2022-10-30T09:07:06.380Z,100657.41
2022-10-30T09:09:39.517Z,100651.69
2022-10-30T09:14:57.680Z,100653.78
2022-10-30T09:23:05.078Z,100644.91
2022-10-30T09:25:35.592Z,100641.25
2022-10-30T09:28:06.240Z,100649.84
2022-10-30T09:30:36.664Z,100643.72
2022-10-30T09:33:07.642Z,100647.41
2022-10-30T09:35:39.648Z,100645.81
2022-10-30T09:38:10.722Z,100651.16
2022-10-30T09:44:24.421Z,100641.03
2022-10-30T09:50:26.383Z,100645.59
2022-10-30T09:53:17.099Z,100637.94
2022-10-30T09:55:57.666Z,100641.66
2022-10-30T09:58:41.981Z,100641.25
2022-10-30T10:01:22.148Z,100642.50
2022-10-30T10:04:08.066Z,100646.59
2022-10-30T10:07:07.737Z,100639.72
2022-10-30T10:10:31.475Z,100632.44
2022-10-30T10:13:03.046Z,100628.03
2022-10-30T10:15:44.897Z,100642.28
2022-10-30T10:18:22.910Z,100638.28
2022-10-30T10:21:05.567Z,100641.53
2022-10-30T10:33:39.105Z,100636.88
2022-10-30T10:36:46.851Z,100635.25
2022-10-30T10:39:42.889Z,100633.69
2022-10-30T10:42:29.386Z,100634.53
2022-10-30T10:45:21.947Z,100632.56
2022-10-30T10:48:24.247Z,100635.03
2022-10-30T10:51:01.109Z,100633.47
2022-10-30T10:53:42.661Z,100634.31
2022-10-30T10:56:13.628Z,100628.66
2022-10-30T10:58:54.403Z,100639.28
2022-10-30T11:01:34.736Z,100643.41
2022-10-30T11:04:17.419Z,100640.19
2022-10-30T11:12:37.497Z,100641.09
2022-10-30T11:18:16.960Z,100644.06
2022-10-30T11:21:02.488Z,100640.41
2022-10-30T11:23:51.454Z,100640.47
2022-10-30T11:26:43.346Z,100641.69
2022-10-30T11:29:18.484Z,100645.41
2022-10-30T11:32:04.338Z,100639.31
2022-10-30T11:34:46.745Z,100645.88
2022-10-30T11:40:25.858Z,100645.53
2022-10-30T11:45:53.326Z,100655.75
2022-10-30T11:48:33.090Z,100648.88
2022-10-30T11:51:05.216Z,100646.88
2022-10-30T11:53:40.479Z,100651.38
2022-10-30T11:56:19.313Z,100655.88
2022-10-30T11:58:54.773Z,100658.75
2022-10-30T12:01:28.949Z,100661.19
2022-10-30T12:04:29.901Z,100653.09
2022-10-30T12:07:20.525Z,100655.16
2022-10-30T12:12:45.390Z,100661.69
2022-10-30T12:15:30.263Z,100662.91
2022-10-30T12:18:06.179Z,100670.66
2022-10-30T12:20:42.681Z,100669.47
2022-10-30T12:23:19.900Z,100658.50
2022-10-30T12:28:42.609Z,100675.69
2022-10-30T12:37:23.896Z,100676.16
2022-10-30T12:40:04.697Z,100674.53
2022-10-30T12:42:45.351Z,100685.94
2022-10-30T12:45:21.999Z,100680.66
2022-10-30T12:48:02.197Z,100681.50
2022-10-30T12:50:43.217Z,100678.69
2022-10-30T12:53:30.663Z,100683.19
2022-10-30T12:56:10.065Z,100685.63
2022-10-30T12:58:50.696Z,100688.91
2022-10-30T13:01:30.633Z,100685.28
2022-10-30T13:04:12.590Z,100694.25
2022-10-30T13:10:04.903Z,100695.06
2022-10-30T13:15:34.220Z,100689.41
2022-10-30T13:21:26.111Z,100699.59
2022-10-30T13:24:04.878Z,100697.16
2022-10-30T13:26:47.578Z,100694.31
2022-10-30T13:29:31.288Z,100701.22
2022-10-30T13:32:25.560Z,100706.13
2022-10-30T13:35:06.163Z,100713.44
2022-10-30T13:37:48.538Z,100715.50
2022-10-30T13:40:34.108Z,100723.63
2022-10-30T13:43:25.325Z,100716.31
2022-10-30T13:46:49.879Z,100723.66
2022-10-30T13:49:44.351Z,100717.19
2022-10-30T13:52:19.834Z,100722.88
2022-10-30T14:01:16.148Z,100718.81
2022-10-30T14:04:03.275Z,100716.41
2022-10-30T14:06:49.405Z,100729.78
2022-10-30T14:15:47.116Z,100729.44
2022-10-30T14:18:46.895Z,100727.41
2022-10-30T14:21:47.852Z,100734.72
2022-10-30T14:27:20.601Z,100733.94
2022-10-30T14:32:52.493Z,100746.91
2022-10-30T14:35:42.637Z,100753.41
2022-10-30T14:41:55.720Z,100757.91
2022-10-30T14:45:05.570Z,100762.78
2022-10-30T14:48:04.571Z,100761.56
2022-10-30T14:50:59.227Z,100767.25
2022-10-30T14:56:51.028Z,100769.72
2022-10-30T14:59:33.703Z,100777.44
2022-10-30T15:02:26.354Z,100775.03
2022-10-30T15:05:33.843Z,100775.03
2022-10-30T15:08:41.302Z,100770.94
2022-10-30T15:14:48.569Z,100780.72
2022-10-30T15:20:25.215Z,100780.31
2022-10-30T15:22:59.349Z,100781.56
2022-10-30T15:25:40.639Z,100784.41
2022-10-30T15:31:06.238Z,100779.94
2022-10-30T15:36:31.969Z,100790.09
2022-10-30T15:39:12.599Z,100802.69
2022-10-30T15:41:51.450Z,100800.25
2022-10-30T15:47:20.171Z,100805.53
2022-10-30T15:49:54.880Z,100807.59
2022-10-30T15:52:27.931Z,100803.53
2022-10-30T15:55:05.245Z,100810.44
2022-10-30T16:00:38.989Z,100816.50
2022-10-30T16:03:19.426Z,100818.56
2022-10-30T16:08:47.293Z,100826.25
2022-10-30T16:11:21.841Z,100832.34
2022-10-30T16:13:56.194Z,100833.16
2022-10-30T16:16:34.142Z,100836.41
2022-10-30T16:19:08.162Z,100831.13
2022-10-30T16:21:38.866Z,100840.88
2022-10-30T16:24:11.701Z,100835.97
2022-10-30T16:26:42.438Z,100839.66
2022-10-30T16:29:27.006Z,100843.72
2022-10-30T16:34:46.533Z,100846.53
2022-10-30T16:37:22.413Z,100850.19
2022-10-30T16:39:55.613Z,100865.22
2022-10-30T16:42:29.303Z,100856.31
2022-10-30T16:45:51.881Z,100866.06
2022-10-30T16:54:20.874Z,100869.28
2022-10-30T16:56:55.428Z,100863.59
2022-10-30T17:02:32.002Z,100867.25
2022-10-30T17:05:13.502Z,100870.09
2022-10-30T17:07:57.946Z,100868.88
2022-10-30T17:16:27.316Z,100870.09
2022-10-30T17:19:03.017Z,100872.09
2022-10-30T17:21:42.676Z,100873.34
2022-10-30T17:24:26.125Z,100876.19
2022-10-30T17:27:00.544Z,100873.75
2022-10-30T17:38:25.079Z,100879.84
2022-10-30T17:40:55.228Z,100884.31
2022-10-30T17:43:29.507Z,100880.63
2022-10-30T17:46:00.684Z,100887.94
2022-10-30T17:51:22.377Z,100883.09
2022-10-30T17:53:53.097Z,100885.53
2022-10-30T17:56:29.860Z,100883.91
2022-10-30T17:58:59.820Z,100887.53
2022-10-30T18:09:59.526Z,100885.91
2022-10-30T18:15:36.275Z,100892.00
2022-10-30T18:18:08.191Z,100892.00
2022-10-30T18:20:39.301Z,100899.31
2022-10-30T18:26:18.104Z,100892.00
2022-10-30T18:28:48.679Z,100887.13
2022-10-30T18:31:21.948Z,100887.53
2022-10-30T18:36:39.872Z,100894.84
2022-10-30T18:39:14.222Z,100888.38
2022-10-30T18:41:46.808Z,100890.38
2022-10-30T18:44:18.352Z,100891.59
2022-10-30T18:47:02.719Z,100882.28
2022-10-30T18:49:33.942Z,100894.84
2022-10-30T18:54:55.627Z,100893.22
2022-10-30T18:57:27.044Z,100889.19
2022-10-30T18:59:57.127Z,100891.19
2022-10-30T19:02:32.653Z,100889.19
2022-10-30T19:05:04.270Z,100885.13
2022-10-30T19:07:35.352Z,100890.41
2022-10-30T19:13:22.689Z,100879.03
2022-10-30T19:16:00.308Z,100889.56
2022-10-30T19:18:33.169Z,100889.56
2022-10-30T19:21:06.513Z,100885.94
2022-10-30T19:26:30.668Z,100894.44
2022-10-30T19:29:01.092Z,100899.28
2022-10-30T19:31:31.649Z,100893.63
2022-10-30T19:34:01.716Z,100890.78
2022-10-30T19:36:36.802Z,100892.81
2022-10-30T19:39:13.554Z,100889.16
2022-10-30T19:41:49.755Z,100894.03
2022-10-30T19:44:30.015Z,100882.66
2022-10-30T19:52:37.486Z,100889.97
2022-10-30T19:55:10.077Z,100888.78
2022-10-30T19:57:43.285Z,100883.09
2022-10-30T20:00:20.496Z,100885.94
2022-10-30T20:02:53.163Z,100889.56
2022-10-30T20:05:26.441Z,100898.09
2022-10-30T20:11:09.160Z,100891.19
2022-10-30T20:13:42.011Z,100894.44
2022-10-30T20:16:14.605Z,100891.59
2022-10-30T20:18:44.455Z,100893.22
2022-10-30T20:21:19.103Z,100901.72
2022-10-30T20:23:50.803Z,100897.25
2022-10-30T20:26:28.846Z,100894.41
2022-10-30T20:29:04.939Z,100895.63
2022-10-30T20:31:35.505Z,100896.03
2022-10-30T20:34:06.978Z,100897.69
2022-10-30T20:36:37.035Z,100896.81
2022-10-30T20:44:53.879Z,100908.97
2022-10-30T20:50:14.001Z,100899.63
2022-10-30T20:52:52.610Z,100893.97
2022-10-30T20:58:20.844Z,100888.66
2022-10-30T21:03:43.924Z,100884.63
2022-10-30T21:06:18.506Z,100892.75
2022-10-30T21:08:50.480Z,100889.50
2022-10-30T21:11:22.364Z,100883.81
2022-10-30T21:13:56.781Z,100874.88
2022-10-30T21:16:29.040Z,100871.25
2022-10-30T21:18:59.704Z,100878.13
2022-10-30T21:21:31.194Z,100896.81
2022-10-30T21:24:01.039Z,100886.66
2022-10-30T21:26:31.999Z,100895.97
2022-10-30T21:29:02.800Z,100886.66
2022-10-30T21:31:34.446Z,100890.28
2022-10-30T21:34:04.314Z,100885.44
2022-10-30T21:36:34.142Z,100891.91
2022-10-30T21:39:06.949Z,100882.59
2022-10-30T21:41:39.899Z,100886.25
2022-10-30T21:44:10.937Z,100878.13
2022-10-30T21:46:43.772Z,100886.66
2022-10-30T21:49:16.864Z,100887.88
2022-10-30T21:51:51.045Z,100880.56
2022-10-30T21:59:46.073Z,100878.94
2022-10-30T22:02:32.225Z,100873.66
2022-10-30T22:05:02.087Z,100874.06
2022-10-30T22:07:32.010Z,100865.16
2022-10-30T22:10:01.975Z,100865.13
2022-10-30T22:15:21.435Z,100859.84
2022-10-30T22:20:49.655Z,100867.94
2022-10-30T22:23:29.282Z,100865.53
2022-10-30T22:26:00.384Z,100862.69
2022-10-30T22:28:39.980Z,100876.88
2022-10-30T22:31:13.495Z,100874.44
2022-10-30T22:33:45.678Z,100865.53
2022-10-30T22:36:22.458Z,100874.81
2022-10-30T22:38:59.741Z,100874.03
2022-10-30T22:41:44.553Z,100874.41
2022-10-30T22:44:17.779Z,100873.97
2022-10-30T22:46:50.369Z,100871.88
2022-10-30T22:49:22.888Z,100867.03
2022-10-30T22:51:52.773Z,100877.13
2022-10-30T22:57:07.647Z,100871.44
2022-10-30T22:59:37.962Z,100871.44
2022-10-30T23:02:22.479Z,100872.66
2022-10-30T23:04:53.796Z,100870.63
2022-10-30T23:07:23.783Z,100862.50
2022-10-30T23:09:53.736Z,100862.91
2022-10-30T23:12:32.432Z,100869.38
2022-10-30T23:15:02.327Z,100874.25
2022-10-30T23:17:32.122Z,100882.34
2022-10-30T23:20:05.187Z,100879.09
2022-10-30T23:22:35.711Z,100875.47
2022-10-30T23:25:05.937Z,100877.50
2022-10-30T23:27:38.528Z,100877.09
2022-10-30T23:30:10.664Z,100874.25
2022-10-30T23:32:41.241Z,100876.66
2022-10-30T23:35:12.781Z,100872.19
2022-10-30T23:37:42.738Z,100872.97
2022-10-30T23:40:16.425Z,100868.50
2022-10-30T23:42:46.851Z,100868.13
2022-10-30T23:45:16.892Z,100863.66
2022-10-30T23:47:46.663Z,100871.34
2022-10-30T23:50:20.768Z,100885.50
2022-10-30T23:52:50.648Z,100868.06
2022-10-30T23:55:20.498Z,100874.56
2022-10-30T23:57:51.522Z,100870.09
